createdAt,value
2018-02-08T00:00:01.116Z,97.58
2018-02-08T00:01:01.100Z,98.01
2018-02-08T00:02:01.077Z,98.25
2018-02-08T00:03:01.060Z,97.49
2018-02-08T00:04:01.039Z,96.88
2018-02-08T00:05:01.022Z,96.88
2018-02-08T00:06:01.000Z,97.30
2018-02-08T00:07:00.980Z,97.58
2018-02-08T00:08:00.961Z,97.34
2018-02-08T00:09:00.945Z,98.34
2018-02-08T00:10:00.923Z,98.15
2018-02-08T00:11:00.905Z,97.02
2018-02-08T00:12:00.892Z,95.93
2018-02-08T00:13:00.870Z,97.49
2018-02-08T00:14:00.847Z,97.39
2018-02-08T00:15:00.828Z,96.64
2018-02-08T00:16:00.805Z,97.20
2018-02-08T00:17:00.789Z,96.50
2018-02-08T00:18:00.768Z,96.26
2018-02-08T00:19:00.747Z,96.64
2018-02-08T00:20:00.729Z,96.78
2018-02-08T00:21:00.709Z,97.53
2018-02-08T00:22:00.692Z,98.25
2018-02-08T00:23:00.669Z,96.78
2018-02-08T00:24:00.650Z,95.83
2018-02-08T00:25:00.637Z,97.44
2018-02-08T00:26:00.612Z,96.88
2018-02-08T00:27:00.591Z,97.06
2018-02-08T00:28:00.575Z,97.25
2018-02-08T00:29:00.559Z,97.16
2018-02-08T00:30:00.543Z,96.40
2018-02-08T00:31:00.523Z,96.88
2018-02-08T00:32:00.495Z,97.53
2018-02-08T00:33:00.477Z,97.53
2018-02-08T00:34:00.456Z,97.16
2018-02-08T00:35:00.448Z,97.06
2018-02-08T00:36:00.419Z,97.25
2018-02-08T00:37:00.396Z,96.21
2018-02-08T00:38:00.379Z,96.88
2018-02-08T00:39:00.365Z,97.16
2018-02-08T00:40:00.342Z,96.12
2018-02-08T00:41:00.331Z,95.55
2018-02-08T00:42:00.302Z,95.93
2018-02-08T00:43:00.287Z,97.53
2018-02-08T00:44:00.264Z,97.53
2018-02-08T00:45:00.247Z,96.31
2018-02-08T00:46:00.223Z,97.44
2018-02-08T00:47:00.208Z,96.50
2018-02-08T00:48:00.183Z,96.97
2018-02-08T00:49:00.163Z,96.69
2018-02-08T00:50:00.151Z,96.21
2018-02-08T00:51:00.122Z,96.31
2018-02-08T00:52:00.104Z,95.17
2018-02-08T00:53:00.086Z,98.29
2018-02-08T00:54:00.066Z,98.48
2018-02-08T00:55:00.049Z,96.97
2018-02-08T00:56:00.030Z,96.02
2018-02-08T00:57:00.017Z,96.69
2018-02-08T00:57:59.994Z,96.69
2018-02-08T00:58:59.967Z,97.53
2018-02-08T00:59:59.945Z,97.53
2018-02-08T01:00:59.927Z,96.78
2018-02-08T01:01:59.911Z,95.93
2018-02-08T01:02:59.892Z,96.69
2018-02-08T01:03:59.866Z,96.59
2018-02-08T01:04:59.849Z,97.44
2018-02-08T01:05:59.827Z,96.50
2018-02-08T01:06:59.808Z,96.21
2018-02-08T01:07:59.787Z,96.21
2018-02-08T01:08:59.769Z,95.93
2018-02-08T01:09:59.747Z,95.74
2018-02-08T01:10:59.730Z,96.12
2018-02-08T01:11:59.711Z,94.60
2018-02-08T01:12:59.692Z,95.64
2018-02-08T01:13:59.671Z,97.25
2018-02-08T01:14:59.656Z,95.93
2018-02-08T01:15:59.631Z,95.93
2018-02-08T01:16:59.615Z,96.31
2018-02-08T01:17:59.591Z,98.10
2018-02-08T01:18:59.570Z,98.39
2018-02-08T01:19:59.551Z,97.06
2018-02-08T01:20:59.530Z,95.55
2018-02-08T01:21:59.524Z,95.93
2018-02-08T01:22:59.492Z,96.88
2018-02-08T01:23:59.472Z,95.93
2018-02-08T01:24:59.452Z,96.59
2018-02-08T01:25:59.438Z,97.53
2018-02-08T01:26:59.411Z,96.88
2018-02-08T01:27:59.393Z,97.25
2018-02-08T01:28:59.372Z,97.34
2018-02-08T01:29:59.353Z,96.59
2018-02-08T01:30:59.330Z,96.12
2018-02-08T01:31:59.314Z,95.83
2018-02-08T01:32:59.301Z,97.82
2018-02-08T01:33:59.278Z,97.53
2018-02-08T01:34:59.259Z,98.86
2018-02-08T01:35:59.233Z,98.39
2018-02-08T01:36:59.214Z,97.82
2018-02-08T01:37:59.194Z,96.12
2018-02-08T01:38:59.180Z,97.06
2018-02-08T01:39:59.154Z,97.16
2018-02-08T01:40:59.151Z,96.50
2018-02-08T01:41:59.116Z,97.34
2018-02-08T01:42:59.093Z,95.26
2018-02-08T01:43:59.076Z,95.93
2018-02-08T01:44:59.056Z,95.83
2018-02-08T01:45:59.041Z,96.69
2018-02-08T01:46:59.012Z,97.44
2018-02-08T01:47:59.003Z,98.29
2018-02-08T01:48:58.974Z,98.29
2018-02-08T01:49:58.960Z,97.44
2018-02-08T01:50:58.942Z,96.69
2018-02-08T01:51:58.914Z,96.97
2018-02-08T01:52:58.900Z,97.16
2018-02-08T01:53:58.874Z,97.06
2018-02-08T01:54:58.854Z,96.88
2018-02-08T01:55:58.834Z,96.97
2018-02-08T01:56:58.814Z,95.55
2018-02-08T01:57:58.803Z,95.64
2018-02-08T01:58:58.774Z,96.21
2018-02-08T01:59:58.761Z,97.16
2018-02-08T02:00:58.734Z,97.34
2018-02-08T02:01:58.723Z,97.44
2018-02-08T02:02:58.701Z,96.78
2018-02-08T02:03:58.680Z,96.50
2018-02-08T02:04:58.654Z,96.88
2018-02-08T02:05:58.642Z,96.78
2018-02-08T02:06:58.617Z,96.78
2018-02-08T02:07:58.595Z,96.02
2018-02-08T02:08:58.583Z,96.02
2018-02-08T02:09:58.563Z,96.21
2018-02-08T02:10:58.538Z,95.45
2018-02-08T02:11:58.524Z,96.12
2018-02-08T02:12:58.497Z,96.21
2018-02-08T02:13:58.479Z,95.83
2018-02-08T02:14:58.458Z,96.21
2018-02-08T02:15:58.445Z,96.88
2018-02-08T02:16:58.421Z,96.69
2018-02-08T02:17:58.400Z,96.78
2018-02-08T02:18:58.387Z,96.97
2018-02-08T02:19:58.361Z,96.97
2018-02-08T02:20:58.342Z,97.53
2018-02-08T02:21:58.324Z,98.39
2018-02-08T02:22:58.300Z,96.88
2018-02-08T02:23:58.287Z,96.21
2018-02-08T02:24:58.262Z,96.02
2018-02-08T02:25:58.244Z,96.21
2018-02-08T02:26:58.225Z,96.40
2018-02-08T02:27:58.203Z,97.53
2018-02-08T02:28:58.187Z,96.78
2018-02-08T02:29:58.172Z,96.97
2018-02-08T02:30:58.153Z,96.59
2018-02-08T02:31:58.134Z,96.69
2018-02-08T02:32:58.108Z,97.06
2018-02-08T02:33:58.088Z,97.44
2018-02-08T02:34:58.068Z,97.44
2018-02-08T02:35:58.049Z,97.25
2018-02-08T02:36:58.030Z,98.39
2018-02-08T02:37:58.011Z,98.29
2018-02-08T02:38:57.993Z,97.25
2018-02-08T02:39:57.971Z,97.34
2018-02-08T02:40:57.954Z,97.72
2018-02-08T02:41:57.934Z,97.91
2018-02-08T02:42:57.915Z,98.20
2018-02-08T02:43:57.933Z,98.58
2018-02-08T02:44:57.877Z,97.44
2018-02-08T02:45:57.862Z,97.34
2018-02-08T02:46:57.841Z,97.11
2018-02-08T02:47:57.826Z,97.44
2018-02-08T02:48:57.800Z,96.88
2018-02-08T02:49:57.787Z,99.10
2018-02-08T02:50:57.768Z,97.91
2018-02-08T02:51:57.750Z,97.25
2018-02-08T02:52:57.725Z,98.15
2018-02-08T02:53:57.705Z,97.06
2018-02-08T02:54:57.686Z,98.39
2018-02-08T02:55:57.667Z,97.53
2018-02-08T02:56:57.655Z,97.25
2018-02-08T02:57:57.630Z,96.88
2018-02-08T02:58:57.607Z,97.06
2018-02-08T02:59:57.590Z,97.06
2018-02-08T03:00:57.579Z,96.97
2018-02-08T03:01:57.551Z,98.10
2018-02-08T03:02:57.532Z,97.44
2018-02-08T03:03:57.512Z,97.16
2018-02-08T03:04:57.499Z,96.69
2018-02-08T03:05:57.476Z,98.29
2018-02-08T03:06:57.455Z,98.10
2018-02-08T03:07:57.435Z,98.10
2018-02-08T03:08:57.418Z,98.58
2018-02-08T03:09:57.399Z,98.96
2018-02-08T03:10:57.384Z,98.58
2018-02-08T03:11:57.360Z,98.29
2018-02-08T03:12:57.342Z,98.48
2018-02-08T03:13:57.329Z,98.48
2018-02-08T03:14:57.301Z,99.71
2018-02-08T03:15:57.283Z,99.99
2018-02-08T03:16:57.269Z,98.58
2018-02-08T03:17:57.245Z,98.39
2018-02-08T03:18:57.231Z,97.53
2018-02-08T03:19:57.207Z,97.16
2018-02-08T03:20:57.194Z,97.44
2018-02-08T03:21:57.167Z,97.91
2018-02-08T03:22:57.149Z,99.05
2018-02-08T03:23:57.136Z,98.39
2018-02-08T03:24:57.109Z,99.99
2018-02-08T03:25:57.100Z,98.86
2018-02-08T03:26:57.071Z,98.10
2018-02-08T03:27:57.060Z,97.72
2018-02-08T03:28:57.039Z,99.10
2018-02-08T03:29:57.022Z,99.33
2018-02-08T03:30:57.000Z,98.10
2018-02-08T03:31:56.976Z,98.10
2018-02-08T03:32:56.959Z,98.29
2018-02-08T03:33:56.942Z,98.10
2018-02-08T03:34:56.917Z,98.20
2018-02-08T03:35:56.898Z,98.58
2018-02-08T03:36:56.882Z,98.29
2018-02-08T03:37:56.866Z,98.01
2018-02-08T03:38:56.842Z,98.20
2018-02-08T03:39:56.822Z,98.10
2018-02-08T03:40:56.809Z,98.39
2018-02-08T03:41:56.793Z,98.96
2018-02-08T03:42:56.765Z,98.96
2018-02-08T03:43:56.745Z,98.39
2018-02-08T03:44:56.728Z,98.96
2018-02-08T03:45:56.716Z,98.77
2018-02-08T03:46:56.688Z,99.24
2018-02-08T03:47:56.669Z,98.29
2018-02-08T03:48:56.651Z,99.19
2018-02-08T03:49:56.637Z,98.91
2018-02-08T03:50:56.613Z,98.91
2018-02-08T03:51:56.601Z,97.30
2018-02-08T03:52:56.577Z,96.59
2018-02-08T03:53:56.556Z,97.16
2018-02-08T03:54:56.541Z,97.34
2018-02-08T03:55:56.516Z,98.01
2018-02-08T03:56:56.507Z,98.29
2018-02-08T03:57:56.484Z,98.86
2018-02-08T03:58:56.465Z,99.15
2018-02-08T03:59:56.439Z,99.99
2018-02-08T04:00:56.420Z,99.62
2018-02-08T04:01:56.403Z,99.05
2018-02-08T04:02:56.386Z,99.33
2018-02-08T04:03:56.361Z,98.77
2018-02-08T04:04:56.388Z,98.48
2018-02-08T04:05:56.323Z,98.48
2018-02-08T04:06:56.310Z,98.10
2018-02-08T04:07:56.284Z,98.29
2018-02-08T04:08:56.272Z,99.15
2018-02-08T04:09:56.257Z,98.77
2018-02-08T04:10:56.280Z,98.86
2018-02-08T04:11:56.206Z,98.10
2018-02-08T04:12:56.197Z,98.48
2018-02-08T04:13:56.177Z,98.39
2018-02-08T04:14:56.151Z,98.96
2018-02-08T04:15:56.128Z,98.86
2018-02-08T04:16:56.119Z,98.77
2018-02-08T04:17:56.090Z,98.58
2018-02-08T04:18:56.070Z,97.16
2018-02-08T04:19:56.056Z,97.34
2018-02-08T04:20:56.041Z,96.88
2018-02-08T04:21:56.023Z,95.93
2018-02-08T04:22:55.993Z,97.06
2018-02-08T04:23:55.983Z,96.50
2018-02-08T04:24:55.954Z,96.69
2018-02-08T04:25:55.937Z,97.06
2018-02-08T04:26:55.920Z,96.59
2018-02-08T04:27:55.896Z,98.29
2018-02-08T04:28:55.880Z,96.97
2018-02-08T04:29:55.860Z,96.78
2018-02-08T04:30:55.836Z,96.59
2018-02-08T04:31:55.819Z,96.97
2018-02-08T04:32:55.798Z,96.97
2018-02-08T04:33:55.780Z,96.12
2018-02-08T04:34:55.762Z,96.02
2018-02-08T04:35:55.746Z,96.12
2018-02-08T04:36:55.723Z,96.12
2018-02-08T04:37:55.704Z,96.59
2018-02-08T04:38:55.688Z,96.02
2018-02-08T04:39:55.666Z,96.69
2018-02-08T04:40:55.648Z,96.59
2018-02-08T04:41:55.630Z,96.31
2018-02-08T04:42:55.609Z,96.78
2018-02-08T04:43:55.589Z,97.72
2018-02-08T04:44:55.569Z,98.48
2018-02-08T04:45:55.548Z,99.15
2018-02-08T04:46:55.530Z,97.06
2018-02-08T04:47:55.511Z,96.21
2018-02-08T04:48:55.500Z,95.83
2018-02-08T04:49:55.474Z,95.93
2018-02-08T04:50:55.454Z,96.88
2018-02-08T04:51:55.437Z,96.88
2018-02-08T04:52:55.416Z,96.40
2018-02-08T04:53:55.405Z,96.88
2018-02-08T04:54:55.378Z,96.02
2018-02-08T04:55:55.361Z,95.26
2018-02-08T04:56:55.340Z,95.36
2018-02-08T04:57:55.320Z,95.36
2018-02-08T04:58:55.306Z,95.83
2018-02-08T04:59:55.282Z,96.02
2018-02-08T05:00:55.268Z,96.12
2018-02-08T05:01:55.245Z,96.02
2018-02-08T05:02:55.225Z,96.78
2018-02-08T05:03:55.209Z,95.93
2018-02-08T05:04:55.187Z,96.21
2018-02-08T05:05:55.167Z,96.78
2018-02-08T05:06:55.156Z,96.50
2018-02-08T05:07:55.129Z,97.53
2018-02-08T05:08:55.115Z,97.34
2018-02-08T05:09:55.091Z,97.44
2018-02-08T05:10:55.075Z,97.25
2018-02-08T05:11:55.054Z,98.10
2018-02-08T05:12:55.044Z,98.39
2018-02-08T05:13:55.019Z,98.67
2018-02-08T05:14:54.997Z,98.01
2018-02-08T05:15:54.981Z,97.16
2018-02-08T05:16:54.957Z,96.59
2018-02-08T05:17:54.938Z,96.69
2018-02-08T05:18:54.918Z,97.44
2018-02-08T05:19:54.911Z,98.67
2018-02-08T05:20:54.883Z,97.44
2018-02-08T05:21:54.864Z,98.29
2018-02-08T05:22:54.843Z,98.48
2018-02-08T05:23:54.827Z,98.29
2018-02-08T05:24:54.804Z,97.34
2018-02-08T05:25:54.788Z,98.10
2018-02-08T05:26:54.764Z,97.16
2018-02-08T05:27:54.757Z,97.53
2018-02-08T05:28:54.733Z,97.53
2018-02-08T05:29:54.718Z,98.10
2018-02-08T05:30:54.691Z,98.10
2018-02-08T05:31:54.678Z,98.48
2018-02-08T05:32:54.700Z,98.01
2018-02-08T05:33:54.632Z,98.58
2018-02-08T05:34:54.723Z,97.25
2018-02-08T05:35:54.601Z,98.29
2018-02-08T05:36:54.580Z,97.16
2018-02-08T05:37:54.614Z,97.53
2018-02-08T05:38:54.540Z,97.34
2018-02-08T05:39:54.522Z,96.21
2018-02-08T05:40:54.499Z,95.55
2018-02-08T05:41:54.479Z,95.93
2018-02-08T05:42:54.459Z,97.53
2018-02-08T05:43:54.440Z,97.82
2018-02-08T05:44:54.421Z,97.82
2018-02-08T05:45:54.412Z,98.01
2018-02-08T05:46:54.384Z,98.01
2018-02-08T05:47:54.366Z,98.10
2018-02-08T05:48:54.349Z,98.77
2018-02-08T05:49:54.325Z,98.58
2018-02-08T05:50:54.315Z,99.05
2018-02-08T05:51:54.287Z,99.05
2018-02-08T05:52:54.305Z,99.99
2018-02-08T05:53:54.247Z,99.99
2018-02-08T05:54:54.240Z,99.99
2018-02-08T05:55:54.223Z,99.90
2018-02-08T05:56:54.195Z,99.71
2018-02-08T05:57:54.171Z,99.52
2018-02-08T05:58:54.156Z,99.99
2018-02-08T05:59:54.134Z,99.99
2018-02-08T06:00:54.112Z,99.99
2018-02-08T06:01:54.100Z,99.33
2018-02-08T06:02:54.073Z,99.33
2018-02-08T06:03:54.052Z,98.48
2018-02-08T06:04:54.038Z,98.58
2018-02-08T06:05:54.016Z,98.29
2018-02-08T06:06:54.000Z,99.15
2018-02-08T06:07:53.983Z,97.53
2018-02-08T06:08:53.956Z,97.53
2018-02-08T06:09:53.942Z,97.06
2018-02-08T06:10:53.922Z,97.44
2018-02-08T06:11:53.905Z,98.39
2018-02-08T06:12:53.879Z,98.48
2018-02-08T06:13:53.859Z,98.29
2018-02-08T06:14:53.840Z,97.44
2018-02-08T06:15:53.824Z,97.82
2018-02-08T06:16:53.800Z,97.63
2018-02-08T06:17:53.792Z,98.39
2018-02-08T06:18:53.761Z,97.63
2018-02-08T06:19:53.791Z,97.53
2018-02-08T06:20:53.731Z,97.53
2018-02-08T06:21:53.712Z,96.02
2018-02-08T06:22:53.686Z,96.69
2018-02-08T06:23:53.703Z,96.88
2018-02-08T06:24:53.655Z,96.78
2018-02-08T06:25:53.632Z,96.69
2018-02-08T06:26:53.605Z,96.50
2018-02-08T06:27:53.587Z,95.93
2018-02-08T06:28:53.572Z,96.21
2018-02-08T06:29:53.549Z,95.74
2018-02-08T06:30:53.528Z,95.93
2018-02-08T06:31:53.508Z,96.02
2018-02-08T06:32:53.494Z,96.69
2018-02-08T06:33:53.468Z,96.88
2018-02-08T06:34:53.453Z,97.06
2018-02-08T06:35:53.431Z,95.55
2018-02-08T06:36:53.415Z,96.78
2018-02-08T06:37:53.391Z,96.31
2018-02-08T06:38:53.370Z,97.06
2018-02-08T06:39:53.355Z,97.34
2018-02-08T06:40:53.332Z,98.58
2018-02-08T06:41:53.312Z,98.58
2018-02-08T06:42:53.300Z,99.33
2018-02-08T06:43:53.278Z,99.15
2018-02-08T06:44:53.252Z,99.15
2018-02-08T06:45:53.233Z,98.77
2018-02-08T06:46:53.224Z,99.99
2018-02-08T06:47:53.198Z,98.96
2018-02-08T06:48:53.182Z,97.91
2018-02-08T06:49:53.154Z,97.63
2018-02-08T06:50:53.135Z,96.78
2018-02-08T06:51:53.116Z,96.69
2018-02-08T06:52:53.100Z,98.39
2018-02-08T06:53:53.077Z,97.63
2018-02-08T06:54:53.056Z,96.88
2018-02-08T06:55:53.038Z,96.69
2018-02-08T06:56:53.024Z,97.63
2018-02-08T06:57:53.003Z,97.25
2018-02-08T06:58:52.978Z,96.88
2018-02-08T06:59:52.960Z,97.44
2018-02-08T07:00:52.939Z,97.53
2018-02-08T07:01:52.919Z,97.53
2018-02-08T07:02:52.906Z,97.34
2018-02-08T07:03:52.879Z,98.29
2018-02-08T07:04:52.859Z,98.10
2018-02-08T07:05:52.840Z,98.58
2018-02-08T07:06:52.820Z,99.24
2018-02-08T07:07:52.801Z,98.86
2018-02-08T07:08:52.788Z,98.39
2018-02-08T07:09:52.762Z,98.10
2018-02-08T07:10:52.781Z,97.34
2018-02-08T07:11:52.722Z,98.48
2018-02-08T07:12:52.706Z,98.29
2018-02-08T07:13:52.690Z,97.72
2018-02-08T07:14:52.667Z,96.88
2018-02-08T07:15:52.645Z,96.50
2018-02-08T07:16:52.628Z,97.53
2018-02-08T07:17:52.609Z,98.01
2018-02-08T07:18:52.595Z,96.78
2018-02-08T07:19:52.570Z,97.91
2018-02-08T07:20:52.550Z,96.78
2018-02-08T07:21:52.535Z,96.12
2018-02-08T07:22:52.513Z,96.07
2018-02-08T07:23:52.489Z,95.26
2018-02-08T07:24:52.471Z,95.93
2018-02-08T07:25:52.452Z,97.30
2018-02-08T07:26:52.437Z,95.93
2018-02-08T07:27:52.415Z,95.26
2018-02-08T07:28:52.405Z,95.40
2018-02-08T07:29:52.374Z,95.59
2018-02-08T07:30:52.355Z,95.59
2018-02-08T07:31:52.337Z,95.40
2018-02-08T07:32:52.324Z,96.54
2018-02-08T07:33:52.299Z,96.54
2018-02-08T07:34:52.282Z,94.74
2018-02-08T07:35:52.261Z,94.46
2018-02-08T07:36:52.243Z,94.74
2018-02-08T07:37:52.229Z,93.47
2018-02-08T07:38:52.202Z,96.35
2018-02-08T07:39:52.183Z,95.36
2018-02-08T07:40:52.169Z,94.93
2018-02-08T07:41:52.146Z,95.31
2018-02-08T07:42:52.134Z,94.65
2018-02-08T07:43:52.108Z,96.16
2018-02-08T07:44:52.087Z,95.59
2018-02-08T07:45:52.071Z,95.21
2018-02-08T07:46:52.049Z,96.16
2018-02-08T07:47:52.030Z,95.21
2018-02-08T07:48:52.024Z,95.21
2018-02-08T07:49:51.993Z,96.64
2018-02-08T07:50:51.979Z,95.97
2018-02-08T07:51:51.955Z,96.07
2018-02-08T07:52:51.941Z,97.68
2018-02-08T07:53:51.916Z,95.78
2018-02-08T07:54:51.903Z,94.37
2018-02-08T07:55:51.877Z,94.37
2018-02-08T07:56:51.865Z,95.31
2018-02-08T07:57:51.849Z,93.51
2018-02-08T07:58:51.821Z,94.27
2018-02-08T07:59:51.801Z,93.51
2018-02-08T08:00:51.783Z,94.37
2018-02-08T08:01:51.773Z,96.16
2018-02-08T08:02:51.745Z,95.78
2018-02-08T08:03:51.750Z,94.46
2018-02-08T08:04:51.712Z,95.21
2018-02-08T08:05:51.689Z,95.31
2018-02-08T08:06:51.672Z,93.70
2018-02-08T08:07:51.652Z,93.13
2018-02-08T08:08:51.630Z,93.32
2018-02-08T08:09:51.617Z,94.46
2018-02-08T08:10:51.598Z,93.99
2018-02-08T08:11:51.573Z,93.70
2018-02-08T08:12:51.566Z,93.23
2018-02-08T08:13:51.537Z,93.23
2018-02-08T08:14:51.521Z,94.56
2018-02-08T08:15:51.498Z,94.18
2018-02-08T08:16:51.481Z,93.89
2018-02-08T08:17:51.461Z,95.69
2018-02-08T08:18:51.447Z,92.85
2018-02-08T08:19:51.424Z,92.38
2018-02-08T08:20:51.400Z,92.29
2018-02-08T08:21:51.389Z,92.43
2018-02-08T08:22:51.364Z,93.51
2018-02-08T08:23:51.351Z,94.74
2018-02-08T08:24:51.331Z,94.74
2018-02-08T08:25:51.308Z,94.51
2018-02-08T08:26:51.292Z,95.21
2018-02-08T08:27:51.280Z,94.93
2018-02-08T08:28:51.250Z,96.26
2018-02-08T08:29:51.238Z,95.78
2018-02-08T08:30:51.211Z,95.78
2018-02-08T08:31:51.200Z,96.35
2018-02-08T08:32:51.174Z,95.59
2018-02-08T08:33:51.161Z,93.89
2018-02-08T08:34:51.141Z,93.51
2018-02-08T08:35:51.121Z,93.70
2018-02-08T08:36:51.096Z,93.80
2018-02-08T08:37:51.083Z,95.31
2018-02-08T08:38:51.062Z,97.02
2018-02-08T08:39:51.040Z,94.84
2018-02-08T08:40:51.021Z,94.56
2018-02-08T08:41:51.005Z,92.38
2018-02-08T08:42:50.985Z,91.15
2018-02-08T08:43:50.967Z,91.62
2018-02-08T08:44:50.944Z,91.81
2018-02-08T08:45:50.927Z,92.85
2018-02-08T08:46:50.910Z,92.19
2018-02-08T08:47:50.890Z,92.10
2018-02-08T08:48:50.871Z,91.15
2018-02-08T08:49:50.852Z,91.24
2018-02-08T08:50:50.832Z,91.43
2018-02-08T08:51:50.813Z,92.14
2018-02-08T08:52:50.798Z,92.66
2018-02-08T08:53:50.781Z,91.57
2018-02-08T08:54:50.758Z,91.43
2018-02-08T08:55:50.741Z,91.95
2018-02-08T08:56:50.722Z,92.14
2018-02-08T08:57:50.709Z,92.05
2018-02-08T08:58:50.685Z,91.29
2018-02-08T08:59:50.669Z,93.65
2018-02-08T09:00:50.655Z,91.95
2018-02-08T09:01:50.635Z,91.29
2018-02-08T09:02:50.618Z,91.19
2018-02-08T09:03:50.593Z,93.08
2018-02-08T09:04:50.577Z,91.86
2018-02-08T09:05:50.557Z,92.71
2018-02-08T09:06:50.538Z,91.86
2018-02-08T09:07:50.530Z,92.05
2018-02-08T09:08:50.504Z,91.62
2018-02-08T09:09:50.486Z,92.28
2018-02-08T09:10:50.465Z,91.33
2018-02-08T09:11:50.458Z,89.34
2018-02-08T09:12:50.430Z,87.12
2018-02-08T09:13:50.423Z,90.25
2018-02-08T09:14:50.397Z,91.43
2018-02-08T09:15:50.379Z,90.86
2018-02-08T09:16:50.357Z,87.73
2018-02-08T09:17:50.340Z,88.40
2018-02-08T09:18:50.322Z,88.49
2018-02-08T09:19:50.308Z,87.50
2018-02-08T09:20:50.290Z,88.26
2018-02-08T09:21:50.268Z,87.21
2018-02-08T09:22:50.251Z,87.40
2018-02-08T09:23:50.238Z,87.59
2018-02-08T09:24:50.212Z,88.26
2018-02-08T09:25:50.201Z,88.45
2018-02-08T09:26:50.183Z,88.54
2018-02-08T09:27:50.159Z,88.92
2018-02-08T09:28:50.151Z,88.45
2018-02-08T09:29:50.135Z,88.17
2018-02-08T09:30:50.112Z,89.20
2018-02-08T09:31:50.089Z,91.86
2018-02-08T09:32:50.075Z,93.46
2018-02-08T09:33:50.052Z,91.86
2018-02-08T09:34:50.039Z,89.87
2018-02-08T09:35:50.020Z,88.54
2018-02-08T09:36:50.001Z,89.30
2018-02-08T09:37:49.983Z,88.26
2018-02-08T09:38:49.963Z,88.59
2018-02-08T09:39:49.945Z,89.44
2018-02-08T09:40:49.928Z,90.96
2018-02-08T09:41:49.913Z,92.00
2018-02-08T09:42:49.893Z,92.10
2018-02-08T09:43:49.876Z,93.51
2018-02-08T09:44:49.859Z,93.80
2018-02-08T09:45:49.838Z,91.72
2018-02-08T09:46:49.820Z,90.77
2018-02-08T09:47:49.803Z,90.48
2018-02-08T09:48:49.787Z,92.00
2018-02-08T09:49:49.760Z,94.60
2018-02-08T09:50:49.742Z,94.13
2018-02-08T09:51:49.746Z,93.84
2018-02-08T09:52:49.708Z,91.95
2018-02-08T09:53:49.687Z,90.06
2018-02-08T09:54:49.674Z,90.91
2018-02-08T09:55:49.650Z,90.06
2018-02-08T09:56:49.631Z,90.34
2018-02-08T09:57:49.614Z,89.30
2018-02-08T09:58:49.606Z,88.54
2018-02-08T09:59:49.576Z,88.64
2018-02-08T10:00:49.566Z,88.45
2018-02-08T10:01:49.545Z,88.54
2018-02-08T10:02:49.526Z,90.06
2018-02-08T10:03:49.508Z,89.11
2018-02-08T10:04:49.491Z,89.01
2018-02-08T10:05:49.479Z,88.54
2018-02-08T10:06:49.447Z,90.81
2018-02-08T10:07:49.430Z,90.06
2018-02-08T10:08:49.417Z,91.19
2018-02-08T10:09:49.393Z,92.80
2018-02-08T10:10:49.373Z,91.48
2018-02-08T10:11:49.355Z,90.34
2018-02-08T10:12:49.339Z,91.67
2018-02-08T10:13:49.321Z,89.77
2018-02-08T10:14:49.299Z,90.91
2018-02-08T10:15:49.289Z,89.87
2018-02-08T10:16:49.264Z,89.58
2018-02-08T10:17:49.245Z,92.43
2018-02-08T10:18:49.225Z,89.82
2018-02-08T10:19:49.207Z,89.82
2018-02-08T10:20:49.197Z,87.16
2018-02-08T10:21:49.176Z,87.35
2018-02-08T10:22:49.156Z,87.64
2018-02-08T10:23:49.142Z,85.36
2018-02-08T10:24:49.121Z,84.70
2018-02-08T10:25:49.101Z,84.51
2018-02-08T10:26:49.082Z,84.23
2018-02-08T10:27:49.062Z,87.26
2018-02-08T10:28:49.045Z,85.55
2018-02-08T10:29:49.030Z,84.51
2018-02-08T10:30:49.056Z,84.70
2018-02-08T10:31:48.991Z,83.00
2018-02-08T10:32:48.975Z,83.18
2018-02-08T10:33:48.962Z,83.00
2018-02-08T10:34:48.939Z,82.90
2018-02-08T10:35:48.930Z,82.56
2018-02-08T10:36:48.905Z,82.75
2018-02-08T10:37:48.893Z,84.27
2018-02-08T10:38:48.873Z,86.16
2018-02-08T10:39:48.854Z,84.84
2018-02-08T10:40:48.842Z,83.04
2018-02-08T10:41:48.817Z,84.84
2018-02-08T10:42:48.807Z,83.80
2018-02-08T10:43:48.783Z,84.46
2018-02-08T10:44:48.765Z,86.83
2018-02-08T10:45:48.747Z,84.27
2018-02-08T10:46:48.728Z,84.27
2018-02-08T10:47:48.711Z,82.56
2018-02-08T10:48:48.693Z,82.66
2018-02-08T10:49:48.677Z,82.09
2018-02-08T10:50:48.665Z,82.85
2018-02-08T10:51:48.649Z,83.42
2018-02-08T10:52:48.625Z,83.89
2018-02-08T10:53:48.609Z,83.98
2018-02-08T10:54:48.590Z,82.09
2018-02-08T10:55:48.573Z,81.52
2018-02-08T10:56:48.557Z,82.37
2018-02-08T10:57:48.539Z,82.18
2018-02-08T10:58:48.522Z,83.23
2018-02-08T10:59:48.509Z,82.18
2018-02-08T11:00:48.489Z,81.90
2018-02-08T11:01:48.476Z,82.56
2018-02-08T11:02:48.455Z,82.43
2018-02-08T11:03:48.440Z,83.66
2018-02-08T11:04:48.422Z,85.27
2018-02-08T11:05:48.405Z,84.13
2018-02-08T11:06:48.395Z,84.70
2018-02-08T11:07:48.371Z,83.66
2018-02-08T11:08:48.353Z,83.47
2018-02-08T11:09:48.335Z,84.99
2018-02-08T11:10:48.318Z,85.46
2018-02-08T11:11:48.311Z,83.85
2018-02-08T11:12:48.285Z,83.75
2018-02-08T11:13:48.271Z,85.46
2018-02-08T11:14:48.256Z,85.17
2018-02-08T11:15:48.233Z,85.65
2018-02-08T11:16:48.216Z,85.65
2018-02-08T11:17:48.199Z,86.31
2018-02-08T11:18:48.182Z,86.41
2018-02-08T11:19:48.167Z,85.36
2018-02-08T11:20:48.149Z,85.55
2018-02-08T11:21:48.140Z,84.08
2018-02-08T11:22:48.113Z,83.80
2018-02-08T11:23:48.095Z,83.04
2018-02-08T11:24:48.079Z,83.32
2018-02-08T11:25:48.070Z,82.28
2018-02-08T11:26:48.045Z,82.37
2018-02-08T11:27:48.030Z,82.94
2018-02-08T11:28:48.013Z,83.89
2018-02-08T11:29:47.995Z,83.98
2018-02-08T11:30:47.983Z,83.61
2018-02-08T11:31:47.969Z,84.17
2018-02-08T11:32:47.952Z,83.61
2018-02-08T11:33:47.927Z,83.89
2018-02-08T11:34:47.910Z,85.22
2018-02-08T11:35:47.899Z,83.51
2018-02-08T11:36:47.925Z,82.47
2018-02-08T11:37:47.861Z,83.51
2018-02-08T11:38:47.845Z,81.81
2018-02-08T11:39:47.829Z,83.09
2018-02-08T11:40:47.811Z,84.99
2018-02-08T11:41:47.794Z,84.42
2018-02-08T11:42:47.775Z,84.89
2018-02-08T11:43:47.759Z,84.99
2018-02-08T11:44:47.743Z,85.65
2018-02-08T11:45:47.731Z,86.79
2018-02-08T11:46:47.711Z,87.35
2018-02-08T11:47:47.690Z,86.83
2018-02-08T11:48:47.676Z,84.27
2018-02-08T11:49:47.665Z,85.88
2018-02-08T11:50:47.640Z,85.22
2018-02-08T11:51:47.632Z,86.35
2018-02-08T11:52:47.613Z,84.36
2018-02-08T11:53:47.591Z,82.75
2018-02-08T11:54:47.574Z,82.75
2018-02-08T11:55:47.561Z,81.62
2018-02-08T11:56:47.541Z,82.43
2018-02-08T11:57:47.524Z,84.32
2018-02-08T11:58:47.508Z,83.85
2018-02-08T11:59:47.491Z,84.13
2018-02-08T12:00:47.481Z,87.35
2018-02-08T12:01:47.463Z,86.98
2018-02-08T12:02:47.439Z,84.80
2018-02-08T12:03:47.431Z,84.89
2018-02-08T12:04:47.405Z,84.74
2018-02-08T12:05:47.390Z,86.26
2018-02-08T12:06:47.378Z,87.21
2018-02-08T12:07:47.356Z,85.60
2018-02-08T12:08:47.341Z,85.31
2018-02-08T12:09:47.325Z,82.75
2018-02-08T12:10:47.305Z,81.05
2018-02-08T12:11:47.288Z,81.99
2018-02-08T12:12:47.270Z,85.41
2018-02-08T12:13:47.257Z,86.83
2018-02-08T12:14:47.237Z,85.60
2018-02-08T12:15:47.222Z,82.98
2018-02-08T12:16:47.206Z,82.98
2018-02-08T12:17:47.188Z,82.70
2018-02-08T12:18:47.179Z,82.60
2018-02-08T12:19:47.154Z,81.47
2018-02-08T12:20:47.137Z,79.95
2018-02-08T12:21:47.127Z,79.38
2018-02-08T12:22:47.104Z,79.47
2018-02-08T12:23:47.090Z,80.52
2018-02-08T12:24:47.073Z,80.33
2018-02-08T12:25:47.058Z,79.00
2018-02-08T12:26:47.042Z,78.91
2018-02-08T12:27:47.028Z,78.05
2018-02-08T12:28:47.009Z,79.19
2018-02-08T12:29:46.997Z,78.15
2018-02-08T12:30:46.975Z,77.86
2018-02-08T12:31:46.966Z,79.10
2018-02-08T12:32:46.951Z,80.80
2018-02-08T12:33:46.934Z,80.24
2018-02-08T12:34:46.910Z,78.72
2018-02-08T12:35:46.894Z,79.28
2018-02-08T12:36:46.934Z,78.34
2018-02-08T12:37:46.864Z,78.15
2018-02-08T12:38:46.843Z,79.95
2018-02-08T12:39:46.828Z,80.90
2018-02-08T12:40:46.813Z,78.05
2018-02-08T12:41:46.804Z,79.00
2018-02-08T12:42:46.788Z,78.53
2018-02-08T12:43:46.769Z,78.15
2018-02-08T12:44:46.753Z,77.11
2018-02-08T12:45:46.732Z,77.01
2018-02-08T12:46:46.715Z,77.48
2018-02-08T12:47:46.700Z,79.95
2018-02-08T12:48:46.690Z,81.09
2018-02-08T12:49:46.673Z,78.43
2018-02-08T12:50:46.650Z,78.72
2018-02-08T12:51:46.638Z,79.76